Time;durP1;ratioP1;P1;durP2;ratioP2;P2;SDS_P1;SDS_P2;PMS_P1;PMS_P2;Temp;Humidity;BMP_temperature;BMP_pressure;BME280_temperature;BME280_humidity;BME280_pressure;Samples;Min_cycle;Max_cycle;Signal;HPM_P1;HPM_P2
2021/12/17 00:03:35;;;;;;;12.23;3.70;;;7.40;99.90;;;;;;20751901;28;20479;-44
2021/12/17 00:13:38;;;;;;;7.25;2.60;;;7.40;99.90;;;;;;20751164;28;20065;-44
2021/12/17 00:54:29;;;;;;;5.32;2.08;;;7.40;99.90;;;;;;20752854;28;20525;-44
2021/12/17 01:04:31;;;;;;;4.13;1.40;;;7.30;99.90;;;;;;20748729;28;20033;-44
2021/12/17 01:14:33;;;;;;;4.13;1.50;;;7.30;99.90;;;;;;20752308;28;20151;-44
2021/12/17 01:45:00;;;;;;;6.93;1.98;;;7.40;99.90;;;;;;20763952;28;20053;-44
2021/12/17 02:05:24;;;;;;;10.27;3.83;;;7.50;99.90;;;;;;20757260;28;20383;-44
2021/12/17 02:36:06;;;;;;;10.43;3.15;;;7.50;99.90;;;;;;20746570;28;20028;-44
2021/12/17 02:46:07;;;;;;;13.13;3.72;;;7.50;99.90;;;;;;20750927;28;20038;-44
2021/12/17 02:56:09;;;;;;;9.75;4.03;;;7.50;99.90;;;;;;20752912;28;20041;-44
2021/12/17 03:06:10;;;;;;;9.43;3.83;;;7.50;99.90;;;;;;20739313;28;20034;-43
2021/12/17 03:16:25;;;;;;;11.30;4.32;;;7.50;99.90;;;;;;20751958;28;20042;-44
2021/12/17 03:26:28;;;;;;;13.50;3.85;;;7.50;99.90;;;;;;20754149;28;20994;-44
2021/12/17 03:36:33;;;;;;;12.60;4.05;;;7.60;99.90;;;;;;20750737;28;20033;-44
2021/12/17 03:46:34;;;;;;;13.52;5.15;;;7.60;99.90;;;;;;20751595;28;20050;-43
2021/12/17 03:56:35;;;;;;;11.95;4.25;;;7.60;99.90;;;;;;20743514;28;20050;-44
2021/12/17 04:06:37;;;;;;;15.75;5.20;;;7.60;99.90;;;;;;20740884;28;21012;-44
2021/12/17 04:16:38;;;;;;;13.93;4.65;;;7.70;99.90;;;;;;20748044;28;20441;-45
2021/12/17 04:26:39;;;;;;;12.80;4.22;;;7.70;99.90;;;;;;20743456;28;20501;-44
2021/12/17 04:36:40;;;;;;;11.70;3.88;;;7.70;99.90;;;;;;20745595;28;20040;-44
2021/12/17 05:07:12;;;;;;;11.63;2.75;;;7.80;99.90;;;;;;20747200;28;20052;-44
2021/12/17 05:27:33;;;;;;;7.10;2.20;;;7.80;99.90;;;;;;20746295;28;20053;-44
2021/12/17 05:37:34;;;;;;;7.30;2.20;;;7.80;99.90;;;;;;20748632;28;20318;-44
2021/12/17 05:47:35;;;;;;;8.68;2.05;;;7.80;99.90;;;;;;20742188;28;20052;-44
2021/12/17 05:57:37;;;;;;;6.30;3.10;;;7.90;99.90;;;;;;20746603;28;20045;-44
2021/12/17 06:07:38;;;;;;;6.03;2.67;;;7.80;99.90;;;;;;20747706;28;20038;-44
2021/12/17 06:17:39;;;;;;;6.45;2.33;;;7.80;99.90;;;;;;20751406;28;20537;-44
2021/12/17 06:27:41;;;;;;;4.72;1.65;;;7.80;99.90;;;;;;20758606;28;20417;-44
2021/12/17 06:37:43;;;;;;;7.75;2.28;;;7.80;99.90;;;;;;20770986;28;20033;-44
2021/12/17 06:47:53;;;;;;;7.47;2.67;;;7.80;99.90;;;;;;20758150;28;20041;-44
2021/12/17 07:28:45;;;;;;;8.55;2.75;;;7.90;99.90;;;;;;20758756;28;20493;-45
2021/12/17 07:48:36;;;;;;;11.18;3.35;;;7.90;99.90;;;;;;20750639;28;20060;-44
2021/12/17 07:58:38;;;;;;;11.50;2.97;;;7.80;99.90;;;;;;20760471;28;20038;-44
2021/12/17 08:08:40;;;;;;;9.35;2.08;;;7.80;99.90;;;;;;20749145;28;20073;-44
2021/12/17 08:38:53;;;;;;;11.50;2.53;;;7.90;99.90;;;;;;20744010;28;20057;-44
2021/12/17 08:48:54;;;;;;;8.82;1.92;;;7.90;99.90;;;;;;20726172;28;20037;-44
2021/12/17 08:58:55;;;;;;;4.53;1.77;;;7.90;99.90;;;;;;20749802;28;20038;-44
2021/12/17 09:08:58;;;;;;;7.47;2.55;;;7.90;99.90;;;;;;20749054;28;20045;-44
2021/12/17 09:18:59;;;;;;;6.55;1.63;;;8.00;99.90;;;;;;20755373;28;20041;-44
2021/12/17 09:29:00;;;;;;;7.57;2.30;;;8.10;99.90;;;;;;20747499;28;20046;-44
2021/12/17 09:39:03;;;;;;;4.57;1.40;;;8.20;99.90;;;;;;20728399;28;20029;-44
2021/12/17 09:49:04;;;;;;;7.97;1.98;;;8.20;99.90;;;;;;20728333;28;20045;-44
2021/12/17 09:59:05;;;;;;;8.55;2.95;;;8.20;99.90;;;;;;20726306;28;20053;-44
2021/12/17 10:09:07;;;;;;;8.98;1.85;;;8.30;99.90;;;;;;20742707;28;20045;-44
2021/12/17 10:19:08;;;;;;;10.77;2.30;;;8.40;99.90;;;;;;20744889;28;20045;-44
2021/12/17 10:29:09;;;;;;;5.15;1.77;;;8.40;99.90;;;;;;20746634;28;20061;-44
2021/12/17 10:39:24;;;;;;;7.18;1.67;;;8.40;99.90;;;;;;20747358;28;20127;-44
2021/12/17 10:49:25;;;;;;;4.35;1.02;;;8.50;99.90;;;;;;20742291;28;20050;-44
2021/12/17 10:59:31;;;;;;;1.40;0.68;;;8.50;99.90;;;;;;20767441;28;20038;-44
2021/12/17 11:09:54;;;;;;;1.25;0.32;;;8.50;99.90;;;;;;20773522;28;20526;-44
2021/12/17 11:19:57;;;;;;;2.88;0.60;;;8.50;99.90;;;;;;20771307;28;20080;-44
2021/12/17 11:29:58;;;;;;;2.47;0.60;;;8.50;99.90;;;;;;20763957;28;20048;-44
2021/12/17 11:40:07;;;;;;;1.17;0.30;;;8.50;99.90;;;;;;20757641;28;20045;-43
2021/12/17 11:50:13;;;;;;;1.27;0.32;;;8.50;99.90;;;;;;20764463;28;20046;-44
2021/12/17 12:00:16;;;;;;;1.38;0.40;;;8.50;99.90;;;;;;20768729;28;20036;-44
2021/12/17 12:10:21;;;;;;;2.75;0.52;;;8.50;99.90;;;;;;20768400;28;20696;-44
2021/12/17 12:20:44;;;;;;;1.85;0.43;;;8.50;99.90;;;;;;20765620;28;20539;-44
2021/12/17 12:30:45;;;;;;;2.33;0.68;;;8.50;99.90;;;;;;20767156;28;20053;-44
2021/12/17 12:40:57;;;;;;;4.32;1.15;;;8.40;99.90;;;;;;20766960;28;20532;-44
2021/12/17 12:51:20;;;;;;;2.50;1.00;;;8.50;99.90;;;;;;20759356;28;20053;-44
2021/12/17 13:01:22;;;;;;;3.03;0.93;;;8.50;99.90;;;;;;20747064;28;20044;-44
2021/12/17 13:11:24;;;;;;;1.80;0.60;;;8.60;99.90;;;;;;20757880;28;20045;-44
2021/12/17 13:31:38;;;;;;;2.53;0.93;;;8.70;99.90;;;;;;20757386;28;20073;-44
2021/12/17 13:41:43;;;;;;;3.13;1.20;;;8.70;99.90;;;;;;20745155;28;20042;-44
2021/12/17 13:51:44;;;;;;;2.97;0.73;;;8.80;99.90;;;;;;20727360;28;20049;-44
2021/12/17 14:01:45;;;;;;;2.30;0.90;;;8.90;99.90;;;;;;20743401;28;20057;-44
2021/12/17 14:11:46;;;;;;;3.05;0.80;;;8.80;99.90;;;;;;20736031;28;20053;-46
2021/12/17 14:21:48;;;;;;;2.65;0.90;;;8.80;99.90;;;;;;20736305;28;20033;-44
2021/12/17 14:31:58;;;;;;;5.03;1.55;;;8.80;99.90;;;;;;20707830;28;20161;-44
2021/12/17 14:42:02;;;;;;;2.25;1.25;;;8.80;99.90;;;;;;20717620;28;20371;-44
2021/12/17 15:02:45;;;;;;;3.60;1.45;;;8.70;99.90;;;;;;20731131;28;20038;-44
2021/12/17 15:12:47;;;;;;;2.35;1.00;;;8.70;99.90;;;;;;20734520;28;20129;-45
2021/12/17 15:22:48;;;;;;;3.65;1.25;;;8.60;99.90;;;;;;20736443;28;20045;-44
2021/12/17 15:32:51;;;;;;;4.20;1.35;;;8.60;99.90;;;;;;20715108;28;20053;-44
2021/12/17 15:42:54;;;;;;;2.33;1.08;;;8.50;99.90;;;;;;20744359;28;20033;-44
2021/12/17 15:52:55;;;;;;;5.05;2.20;;;8.50;99.90;;;;;;20735131;28;20874;-44
2021/12/17 16:02:58;;;;;;;5.40;2.20;;;8.50;99.90;;;;;;20733848;28;20030;-44
2021/12/17 16:23:18;;;;;;;3.45;1.42;;;8.50;99.90;;;;;;20742567;28;20041;-44
2021/12/17 16:33:19;;;;;;;4.32;1.67;;;8.50;99.90;;;;;;20722633;28;20038;-44
2021/12/17 16:43:21;;;;;;;6.00;1.75;;;8.50;99.90;;;;;;20737753;28;20052;-44
2021/12/17 16:53:22;;;;;;;6.30;1.92;;;8.50;99.90;;;;;;20738887;28;20732;-44
2021/12/17 17:03:23;;;;;;;6.03;2.40;;;8.50;99.90;;;;;;20738639;28;20046;-44
2021/12/17 17:13:24;;;;;;;6.63;2.30;;;8.50;99.90;;;;;;20737505;28;20049;-44
2021/12/17 17:23:25;;;;;;;9.73;2.50;;;8.50;99.90;;;;;;20738160;28;20033;-44
2021/12/17 17:33:30;;;;;;;7.57;2.33;;;8.50;99.90;;;;;;20728987;28;20120;-44
2021/12/17 17:43:31;;;;;;;9.30;3.40;;;8.50;99.90;;;;;;20747636;28;20033;-44
2021/12/17 17:53:33;;;;;;;7.95;3.80;;;8.50;99.90;;;;;;20741429;28;20045;-44
2021/12/17 18:03:35;;;;;;;8.95;3.10;;;8.50;99.90;;;;;;20707797;28;20041;-44
2021/12/17 18:13:37;;;;;;;4.97;1.98;;;8.50;99.90;;;;;;20719061;28;20425;-43
2021/12/17 18:23:39;;;;;;;8.55;3.13;;;8.50;99.90;;;;;;20722346;28;20133;-44
2021/12/17 18:33:40;;;;;;;5.60;2.22;;;8.50;99.90;;;;;;20738515;28;20071;-44
2021/12/17 18:54:01;;;;;;;4.63;1.90;;;8.50;99.90;;;;;;20743298;28;20037;-44
2021/12/17 19:04:02;;;;;;;4.38;1.92;;;8.50;99.90;;;;;;20740498;28;20045;-44
2021/12/17 19:14:05;;;;;;;2.78;1.40;;;8.50;99.90;;;;;;20748907;28;20502;-44
2021/12/17 19:24:08;;;;;;;4.50;1.65;;;8.50;99.90;;;;;;20730274;28;20030;-44
2021/12/17 19:34:09;;;;;;;5.85;2.97;;;8.50;99.90;;;;;;20728740;28;21151;-44
2021/12/17 19:44:10;;;;;;;3.45;1.45;;;8.40;99.90;;;;;;20736694;28;20046;-44
2021/12/17 19:54:12;;;;;;;7.05;2.72;;;8.50;99.90;;;;;;20736933;28;20038;-44
2021/12/17 20:04:14;;;;;;;7.15;2.80;;;8.40;99.90;;;;;;20740845;28;20063;-44
2021/12/17 20:14:15;;;;;;;9.77;3.17;;;8.40;99.90;;;;;;20738152;28;20057;-44
2021/12/17 20:24:17;;;;;;;5.80;2.78;;;8.40;99.90;;;;;;20736313;28;20099;-44
2021/12/17 20:34:18;;;;;;;5.72;2.20;;;8.40;99.90;;;;;;20734652;28;20041;-44
2021/12/17 20:44:20;;;;;;;5.15;1.80;;;8.40;99.90;;;;;;20739003;28;20053;-44
2021/12/17 20:54:21;;;;;;;9.75;2.58;;;8.40;99.90;;;;;;20743597;28;20050;-44
2021/12/17 21:04:23;;;;;;;4.97;2.03;;;8.40;99.90;;;;;;20738569;28;20045;-44
2021/12/17 21:14:25;;;;;;;7.88;2.25;;;8.40;99.90;;;;;;20737041;28;20501;-44
2021/12/17 21:24:28;;;;;;;9.02;2.63;;;8.40;99.90;;;;;;20735400;28;20038;-44
2021/12/17 21:34:30;;;;;;;7.07;2.38;;;8.40;99.90;;;;;;20731798;28;20033;-44
2021/12/17 21:44:37;;;;;;;8.05;2.45;;;8.40;99.90;;;;;;20730668;28;20033;-45
2021/12/17 21:54:40;;;;;;;7.07;2.53;;;8.40;99.90;;;;;;20738208;28;20038;-44
2021/12/17 22:04:42;;;;;;;5.38;2.05;;;8.30;99.90;;;;;;20763813;28;20037;-44
2021/12/17 22:14:43;;;;;;;6.47;1.50;;;8.40;99.90;;;;;;20751890;28;20042;-44
2021/12/17 22:24:45;;;;;;;6.25;2.53;;;8.30;99.90;;;;;;20742169;28;20650;-44
2021/12/17 22:34:46;;;;;;;3.67;1.58;;;8.40;99.90;;;;;;20733029;28;20104;-44
2021/12/17 22:44:47;;;;;;;4.25;1.65;;;8.40;99.90;;;;;;20732452;28;20045;-44
2021/12/17 22:54:48;;;;;;;5.10;1.45;;;8.40;99.90;;;;;;20729398;28;20049;-44
2021/12/17 23:04:58;;;;;;;5.43;2.15;;;8.30;99.90;;;;;;20730998;28;20515;-44
2021/12/17 23:14:59;;;;;;;5.07;1.58;;;8.30;99.90;;;;;;20730666;28;20045;-44
2021/12/17 23:25:00;;;;;;;8.55;2.08;;;8.30;99.90;;;;;;20727410;28;20061;-44
2021/12/17 23:35:14;;;;;;;4.88;1.48;;;8.30;99.90;;;;;;20724516;28;20840;-44
2021/12/17 23:45:15;;;;;;;5.45;1.45;;;8.30;99.90;;;;;;20725202;28;20037;-44
2021/12/17 23:55:17;;;;;;;3.90;1.38;;;8.30;99.90;;;;;;20724775;28;20065;-44
